createdAt,value
2022-11-24T00:01:16.309Z,77.91
2022-11-24T00:03:45.563Z,78.95
2022-11-24T00:06:15.326Z,79.18
2022-11-24T00:08:45.589Z,77.98
2022-11-24T00:11:16.467Z,78.14
2022-11-24T00:13:44.369Z,77.88
2022-11-24T00:16:16.442Z,78.14
2022-11-24T00:18:46.113Z,77.66
2022-11-24T00:21:14.458Z,77.41
2022-11-24T00:23:41.458Z,76.59
2022-11-24T00:26:17.949Z,76.66
2022-11-24T00:28:48.063Z,76.25
2022-11-24T00:31:31.026Z,75.57
2022-11-24T00:34:01.890Z,76.30
2022-11-24T00:36:31.379Z,75.62
2022-11-24T00:39:01.669Z,75.93
2022-11-24T00:41:29.837Z,75.97
2022-11-24T00:43:57.884Z,75.41
2022-11-24T00:46:25.801Z,75.19
2022-11-24T00:48:53.857Z,75.20
2022-11-24T00:51:24.614Z,74.84
2022-11-24T00:53:51.465Z,75.35
2022-11-24T00:56:18.293Z,75.24
2022-11-24T00:58:45.294Z,74.98
2022-11-24T01:01:27.815Z,75.14
2022-11-24T01:03:55.752Z,74.98
2022-11-24T01:06:27.819Z,75.25
2022-11-24T01:08:56.763Z,75.15
2022-11-24T01:11:55.646Z,74.67
2022-11-24T01:14:24.539Z,74.60
2022-11-24T01:16:51.497Z,74.65
2022-11-24T01:19:18.888Z,74.04
2022-11-24T01:21:46.280Z,74.58
2022-11-24T01:24:14.089Z,74.25
2022-11-24T01:26:41.110Z,74.57
2022-11-24T01:29:09.988Z,74.74
2022-11-24T01:31:37.101Z,74.76
2022-11-24T01:34:04.002Z,75.92
2022-11-24T01:36:30.860Z,74.98
2022-11-24T01:38:57.626Z,75.14
2022-11-24T01:41:26.586Z,74.96
2022-11-24T01:43:55.542Z,75.02
2022-11-24T01:46:36.197Z,74.85
2022-11-24T01:49:18.279Z,74.95
2022-11-24T01:52:26.089Z,74.92
2022-11-24T01:54:57.749Z,75.13
2022-11-24T01:57:35.746Z,76.36
2022-11-24T02:00:10.668Z,76.87
2022-11-24T02:02:37.676Z,75.98
2022-11-24T02:05:11.337Z,75.24
2022-11-24T02:07:38.443Z,74.68
2022-11-24T02:10:16.399Z,75.06
2022-11-24T02:12:47.012Z,75.67
2022-11-24T02:15:18.243Z,75.34
2022-11-24T02:17:45.095Z,75.79
2022-11-24T02:20:13.142Z,75.68
2022-11-24T02:23:22.654Z,75.30
2022-11-24T02:26:02.751Z,76.10
2022-11-24T02:28:30.843Z,75.94
2022-11-24T02:31:00.199Z,75.63
2022-11-24T02:33:27.923Z,75.13
2022-11-24T02:35:54.913Z,74.95
2022-11-24T02:38:33.563Z,75.84
2022-11-24T02:41:05.772Z,75.66
2022-11-24T02:43:39.924Z,75.67
2022-11-24T02:46:06.947Z,75.65
2022-11-24T02:48:33.839Z,75.96
2022-11-24T02:51:00.688Z,75.92
2022-11-24T02:53:27.615Z,75.68
2022-11-24T02:55:54.720Z,75.12
2022-11-24T02:58:21.757Z,74.67
2022-11-24T03:00:48.950Z,75.67
2022-11-24T03:03:15.852Z,75.07
2022-11-24T03:05:42.684Z,74.84
2022-11-24T03:08:09.446Z,74.56
2022-11-24T03:10:36.292Z,74.62
2022-11-24T03:13:03.087Z,74.88
2022-11-24T03:15:30.008Z,75.29
2022-11-24T03:17:56.935Z,74.65
2022-11-24T03:20:25.280Z,74.71
2022-11-24T03:22:52.453Z,74.63
2022-11-24T03:25:19.503Z,74.43
2022-11-24T03:27:46.992Z,74.14
2022-11-24T03:30:14.671Z,74.81
2022-11-24T03:32:42.009Z,74.46
2022-11-24T03:35:09.480Z,75.04
2022-11-24T03:37:36.262Z,75.81
2022-11-24T03:40:03.253Z,75.93
2022-11-24T03:42:30.059Z,75.39
2022-11-24T03:44:56.892Z,76.08
2022-11-24T03:47:23.700Z,75.52
2022-11-24T03:49:50.525Z,75.00
2022-11-24T03:52:17.348Z,77.18
2022-11-24T03:54:44.221Z,76.62
2022-11-24T03:57:11.033Z,76.90
2022-11-24T03:59:37.873Z,76.82
2022-11-24T04:02:05.098Z,75.88
2022-11-24T04:04:32.196Z,75.75
2022-11-24T04:06:59.477Z,75.37
2022-11-24T04:09:26.279Z,74.92
2022-11-24T04:12:11.416Z,75.13
2022-11-24T04:14:38.386Z,75.33
2022-11-24T04:17:05.240Z,74.92
2022-11-24T04:19:32.031Z,74.79
2022-11-24T04:21:58.808Z,75.08
2022-11-24T04:24:25.653Z,76.18
2022-11-24T04:26:52.419Z,75.01
2022-11-24T04:29:19.182Z,75.02
2022-11-24T04:31:46.030Z,75.66
2022-11-24T04:34:12.899Z,75.11
2022-11-24T04:36:40.920Z,75.03
2022-11-24T04:39:23.540Z,74.83
2022-11-24T04:41:52.986Z,74.37
2022-11-24T04:44:19.762Z,75.77
2022-11-24T04:46:46.624Z,74.49
2022-11-24T04:49:13.558Z,75.33
2022-11-24T04:51:41.247Z,75.04
2022-11-24T04:54:11.999Z,74.79
2022-11-24T04:56:40.276Z,74.39
2022-11-24T04:59:08.659Z,74.44
2022-11-24T05:01:35.846Z,74.45
2022-11-24T05:04:02.825Z,74.66
2022-11-24T05:06:29.891Z,74.29
2022-11-24T05:08:56.708Z,74.65
2022-11-24T05:11:23.523Z,74.24
2022-11-24T05:13:50.397Z,74.28
2022-11-24T05:16:17.245Z,75.00
2022-11-24T05:18:44.242Z,74.66
2022-11-24T05:21:11.047Z,74.77
2022-11-24T05:23:37.927Z,74.44
2022-11-24T05:26:05.364Z,74.75
2022-11-24T05:28:32.459Z,74.79
2022-11-24T05:31:01.692Z,74.50
2022-11-24T05:33:30.009Z,74.61
2022-11-24T05:36:02.164Z,74.87
2022-11-24T05:38:30.112Z,74.68
2022-11-24T05:41:04.846Z,74.39
2022-11-24T05:43:31.866Z,74.54
2022-11-24T05:46:00.505Z,74.55
2022-11-24T05:48:28.732Z,74.34
2022-11-24T05:50:57.528Z,73.95
2022-11-24T05:53:26.254Z,73.41
2022-11-24T05:55:53.381Z,74.51
2022-11-24T05:58:20.253Z,74.09
2022-11-24T06:00:47.156Z,74.33
2022-11-24T06:03:14.133Z,74.14
2022-11-24T06:05:46.742Z,74.01
2022-11-24T06:08:14.294Z,73.87
2022-11-24T06:10:41.455Z,74.75
2022-11-24T06:13:08.713Z,74.56
2022-11-24T06:15:37.619Z,74.79
2022-11-24T06:18:04.539Z,75.43
2022-11-24T06:20:32.901Z,75.50
2022-11-24T06:23:01.035Z,74.24
2022-11-24T06:25:29.384Z,73.93
2022-11-24T06:27:56.316Z,75.24
2022-11-24T06:30:23.258Z,74.13
2022-11-24T06:32:54.638Z,73.59
2022-11-24T06:35:21.445Z,73.59
2022-11-24T06:37:48.283Z,74.04
2022-11-24T06:40:15.248Z,74.17
2022-11-24T06:42:42.087Z,72.80
2022-11-24T06:45:09.893Z,73.16
2022-11-24T06:47:37.373Z,73.92
2022-11-24T06:50:05.448Z,73.46
2022-11-24T06:52:32.256Z,73.22
2022-11-24T06:54:59.104Z,72.92
2022-11-24T06:57:27.396Z,73.38
2022-11-24T06:59:54.389Z,72.29
2022-11-24T07:02:21.206Z,72.54
2022-11-24T07:04:48.049Z,72.64
2022-11-24T07:07:14.848Z,71.69
2022-11-24T07:09:41.801Z,72.54
2022-11-24T07:12:08.584Z,71.90
2022-11-24T07:14:35.704Z,71.76
2022-11-24T07:17:04.659Z,72.08
2022-11-24T07:19:31.867Z,71.65
2022-11-24T07:21:58.898Z,71.60
2022-11-24T07:24:25.871Z,71.47
2022-11-24T07:26:52.719Z,71.08
2022-11-24T07:29:19.877Z,71.25
2022-11-24T07:31:46.763Z,71.76
2022-11-24T07:34:14.816Z,70.80
2022-11-24T07:36:42.802Z,69.88
2022-11-24T07:39:09.645Z,71.10
2022-11-24T07:41:36.451Z,71.32
2022-11-24T07:44:03.456Z,71.79
2022-11-24T07:46:30.279Z,69.56
2022-11-24T07:48:57.116Z,68.55
2022-11-24T07:51:24.127Z,66.32
2022-11-24T07:53:51.018Z,64.44
2022-11-24T07:56:17.803Z,64.18
2022-11-24T07:58:49.799Z,64.89
2022-11-24T08:01:19.950Z,62.26
2022-11-24T08:03:47.337Z,60.96
2022-11-24T08:06:25.102Z,59.54
2022-11-24T08:08:52.201Z,59.48
2022-11-24T08:11:19.139Z,57.71
2022-11-24T08:13:46.135Z,57.24
2022-11-24T08:16:16.001Z,56.62
2022-11-24T08:18:44.265Z,55.28
2022-11-24T08:21:14.668Z,54.06
2022-11-24T08:23:42.324Z,54.74
2022-11-24T08:26:15.831Z,53.03
2022-11-24T08:28:44.629Z,53.59
2022-11-24T08:31:18.461Z,56.00
2022-11-24T08:33:46.150Z,54.91
2022-11-24T08:36:17.402Z,55.11
2022-11-24T08:38:45.459Z,54.64
2022-11-24T08:41:15.029Z,56.11
2022-11-24T08:43:42.457Z,54.86
2022-11-24T08:46:13.633Z,54.02
2022-11-24T08:48:41.517Z,54.33
2022-11-24T08:51:12.190Z,55.15
2022-11-24T08:53:40.061Z,57.38
2022-11-24T08:56:08.849Z,57.49
2022-11-24T08:58:36.194Z,57.72
2022-11-24T09:01:11.372Z,58.90
2022-11-24T09:03:41.265Z,60.14
2022-11-24T09:06:11.753Z,59.17
2022-11-24T09:08:38.865Z,56.49
2022-11-24T09:11:12.286Z,55.40
2022-11-24T09:13:40.437Z,57.23
2022-11-24T09:16:13.270Z,56.89
2022-11-24T09:18:40.371Z,56.04
2022-11-24T09:21:12.206Z,56.32
2022-11-24T09:23:40.507Z,58.12
2022-11-24T09:26:10.759Z,57.93
2022-11-24T09:28:37.861Z,57.79
2022-11-24T09:31:08.208Z,57.11
2022-11-24T09:33:36.035Z,56.28
2022-11-24T09:36:03.513Z,58.04
2022-11-24T09:38:30.536Z,56.94
2022-11-24T09:41:34.579Z,55.50
2022-11-24T09:44:23.148Z,54.65
2022-11-24T09:47:17.023Z,56.85
2022-11-24T09:50:04.227Z,56.03
2022-11-24T09:53:01.161Z,56.82
2022-11-24T09:55:46.753Z,56.89
2022-11-24T09:58:18.856Z,57.14
2022-11-24T10:00:48.625Z,56.38
2022-11-24T10:03:32.279Z,57.03
2022-11-24T10:06:04.558Z,57.59
2022-11-24T10:09:07.958Z,55.11
2022-11-24T10:12:18.533Z,56.65
2022-11-24T10:15:12.036Z,56.87
2022-11-24T10:17:45.455Z,57.55
2022-11-24T10:20:27.592Z,58.14
2022-11-24T10:23:09.352Z,57.52
2022-11-24T10:25:58.715Z,57.90
2022-11-24T10:28:56.918Z,57.66
2022-11-24T10:31:33.123Z,57.98
2022-11-24T10:34:19.358Z,59.49
2022-11-24T10:37:10.672Z,61.06
2022-11-24T10:39:48.253Z,62.23
2022-11-24T10:42:36.963Z,64.38
2022-11-24T10:45:13.993Z,65.33
2022-11-24T10:47:42.689Z,66.07
2022-11-24T10:50:27.394Z,66.97
2022-11-24T10:53:23.391Z,67.89
2022-11-24T10:55:56.377Z,68.53
2022-11-24T10:58:37.644Z,68.48
2022-11-24T11:01:14.478Z,70.01
2022-11-24T11:03:53.027Z,70.04
2022-11-24T11:06:31.510Z,69.84
2022-11-24T11:09:07.537Z,69.75
2022-11-24T11:11:36.521Z,69.51
2022-11-24T11:14:06.961Z,69.41
2022-11-24T11:16:46.108Z,69.29
2022-11-24T11:19:55.441Z,70.50
2022-11-24T11:22:36.927Z,70.74
2022-11-24T11:25:07.314Z,69.47
2022-11-24T11:27:34.249Z,71.01
2022-11-24T11:36:13.596Z,68.51
2022-11-24T11:38:41.703Z,67.51
2022-11-24T11:41:20.718Z,65.34
2022-11-24T11:43:57.504Z,65.67
2022-11-24T11:46:26.249Z,65.23
2022-11-24T11:48:53.139Z,66.06
2022-11-24T11:51:38.240Z,65.99
2022-11-24T11:54:38.083Z,65.32
2022-11-24T11:57:17.151Z,63.03
2022-11-24T12:00:09.598Z,62.83
2022-11-24T12:03:05.477Z,60.41
2022-11-24T12:06:27.973Z,54.72
2022-11-24T12:09:27.238Z,49.85
2022-11-24T12:12:44.504Z,53.81
2022-11-24T12:15:51.254Z,52.83
2022-11-24T12:19:14.813Z,55.42
2022-11-24T12:22:20.727Z,58.00
2022-11-24T12:24:58.205Z,58.62
2022-11-24T12:28:26.333Z,62.01
2022-11-24T12:31:07.112Z,62.37
2022-11-24T12:34:03.826Z,63.23
2022-11-24T12:36:56.311Z,64.82
2022-11-24T12:39:45.786Z,64.24
2022-11-24T12:42:36.009Z,64.11
2022-11-24T12:45:17.087Z,66.13
2022-11-24T12:47:52.328Z,63.90
2022-11-24T12:50:27.736Z,63.39
2022-11-24T12:53:06.507Z,63.49
2022-11-24T12:55:34.072Z,64.62
2022-11-24T12:58:17.491Z,63.44
2022-11-24T13:00:58.743Z,64.48
2022-11-24T13:03:43.233Z,64.76
2022-11-24T13:06:21.861Z,64.35
2022-11-24T13:08:49.168Z,65.01
2022-11-24T13:11:22.010Z,65.23
2022-11-24T13:14:00.277Z,65.55
2022-11-24T13:16:37.059Z,66.30
2022-11-24T13:19:33.690Z,66.50
2022-11-24T13:22:07.673Z,66.15
2022-11-24T13:24:37.449Z,66.95
2022-11-24T13:27:13.703Z,67.12
2022-11-24T13:29:43.201Z,67.02
2022-11-24T13:32:11.653Z,66.67
2022-11-24T13:34:42.676Z,66.22
2022-11-24T13:37:34.449Z,65.76
2022-11-24T13:40:11.872Z,66.23
2022-11-24T13:42:57.659Z,66.49
2022-11-24T13:45:39.799Z,66.65
2022-11-24T13:48:19.388Z,67.29
2022-11-24T13:50:58.119Z,66.68
2022-11-24T13:53:47.738Z,66.82
2022-11-24T13:56:15.032Z,66.36
2022-11-24T13:58:58.655Z,66.64
2022-11-24T14:01:36.178Z,66.65
2022-11-24T14:04:34.437Z,66.76
2022-11-24T14:07:08.709Z,66.98
2022-11-24T14:09:50.363Z,67.48
2022-11-24T14:12:24.847Z,67.44
2022-11-24T14:14:56.850Z,66.82
2022-11-24T14:17:28.117Z,65.73
2022-11-24T14:19:58.455Z,64.68
2022-11-24T14:22:40.640Z,63.14
2022-11-24T14:25:32.251Z,62.89
2022-11-24T14:28:00.527Z,59.70
2022-11-24T14:30:27.581Z,59.92
2022-11-24T14:33:09.593Z,61.18
2022-11-24T14:35:43.797Z,62.28
2022-11-24T14:38:12.517Z,63.11
2022-11-24T14:40:55.052Z,63.80
2022-11-24T14:43:29.787Z,64.42
2022-11-24T14:45:59.961Z,64.50
2022-11-24T14:48:36.286Z,64.93
2022-11-24T14:51:28.930Z,64.96
2022-11-24T14:54:01.013Z,64.03
2022-11-24T14:56:37.013Z,64.10
2022-11-24T14:59:21.115Z,65.44
2022-11-24T15:01:48.076Z,65.50
2022-11-24T15:05:00.651Z,65.39
2022-11-24T15:07:29.086Z,66.12
2022-11-24T15:10:01.841Z,66.09
2022-11-24T15:12:39.200Z,66.17
2022-11-24T15:15:32.147Z,66.35
2022-11-24T15:18:01.755Z,66.91
2022-11-24T15:20:42.179Z,66.84
2022-11-24T15:23:28.053Z,67.18
2022-11-24T15:25:57.233Z,67.27
2022-11-24T15:28:27.776Z,67.43
2022-11-24T15:31:15.488Z,67.94
2022-11-24T15:33:42.442Z,68.11
2022-11-24T15:36:09.241Z,68.45
2022-11-24T15:38:36.078Z,68.85
2022-11-24T15:41:20.863Z,69.85
2022-11-24T15:43:47.722Z,69.64
2022-11-24T15:46:14.600Z,69.54
2022-11-24T15:48:41.493Z,69.37
2022-11-24T15:51:13.407Z,70.13
2022-11-24T15:53:48.457Z,70.21
2022-11-24T15:56:31.032Z,70.62
2022-11-24T15:58:57.955Z,70.57
2022-11-24T16:01:29.705Z,70.91
2022-11-24T16:03:56.602Z,70.91
2022-11-24T16:06:25.073Z,70.88
2022-11-24T16:08:53.858Z,70.99
2022-11-24T16:11:21.478Z,70.65
2022-11-24T16:13:52.303Z,70.70
2022-11-24T16:16:20.821Z,70.40
2022-11-24T16:18:47.730Z,70.32
2022-11-24T16:21:14.612Z,70.39
2022-11-24T16:23:41.532Z,70.06
2022-11-24T16:26:09.392Z,70.22
2022-11-24T16:28:36.207Z,70.44
2022-11-24T16:31:03.017Z,70.63
2022-11-24T16:33:34.799Z,70.63
2022-11-24T16:36:01.631Z,70.77
2022-11-24T16:38:28.503Z,70.71
2022-11-24T16:40:58.611Z,70.72
2022-11-24T16:43:25.528Z,70.72
2022-11-24T16:46:15.656Z,70.69
2022-11-24T16:48:42.777Z,70.41
2022-11-24T16:51:11.141Z,70.41
2022-11-24T16:53:38.256Z,70.27
2022-11-24T16:56:05.560Z,70.44
2022-11-24T16:58:33.016Z,70.25
2022-11-24T17:01:08.781Z,69.92
2022-11-24T17:03:38.675Z,69.72
2022-11-24T17:06:08.219Z,69.95
2022-11-24T17:08:37.105Z,69.58
2022-11-24T17:11:10.118Z,69.79
2022-11-24T17:13:37.763Z,69.79
2022-11-24T17:16:06.838Z,70.17
2022-11-24T17:18:34.596Z,70.40
2022-11-24T17:21:07.885Z,70.58
2022-11-24T17:23:36.772Z,70.57
2022-11-24T17:26:10.643Z,70.74
2022-11-24T17:28:38.486Z,71.18
2022-11-24T17:31:32.156Z,70.85
2022-11-24T17:34:00.708Z,71.21
2022-11-24T17:36:30.475Z,71.09
2022-11-24T17:38:59.956Z,71.24
2022-11-24T17:41:27.827Z,71.19
2022-11-24T17:43:56.649Z,71.11
2022-11-24T17:46:25.680Z,71.38
2022-11-24T17:48:52.887Z,71.87
2022-11-24T17:51:22.056Z,72.04
2022-11-24T17:53:52.611Z,72.22
2022-11-24T17:56:25.632Z,72.07
2022-11-24T17:58:59.137Z,72.71
2022-11-24T18:01:28.561Z,72.65
2022-11-24T18:03:55.746Z,72.48
2022-11-24T18:06:25.284Z,73.22
2022-11-24T18:08:54.011Z,73.08
2022-11-24T18:11:31.483Z,73.88
2022-11-24T18:14:02.515Z,74.42
2022-11-24T18:16:32.436Z,74.31
2022-11-24T18:19:10.759Z,74.14
2022-11-24T18:21:40.423Z,74.52
2022-11-24T18:24:09.294Z,74.52
2022-11-24T18:26:36.164Z,74.69
2022-11-24T18:29:03.382Z,75.58
2022-11-24T18:31:31.410Z,75.12
2022-11-24T18:33:59.254Z,74.85
2022-11-24T18:36:30.385Z,74.83
2022-11-24T18:39:00.455Z,74.78
2022-11-24T18:41:27.466Z,74.84
2022-11-24T18:43:54.298Z,74.63
2022-11-24T18:46:21.273Z,74.40
2022-11-24T18:48:48.270Z,74.42
2022-11-24T18:51:15.200Z,74.46
2022-11-24T18:53:46.625Z,74.55
2022-11-24T18:56:16.279Z,74.22
2022-11-24T18:58:44.000Z,74.33
2022-11-24T19:01:20.060Z,74.07
2022-11-24T19:03:54.021Z,74.49
2022-11-24T19:06:28.861Z,74.46
2022-11-24T19:08:56.169Z,74.66
2022-11-24T19:11:33.626Z,74.68
2022-11-24T19:14:02.391Z,75.26
2022-11-24T19:16:29.980Z,74.87
2022-11-24T19:18:59.928Z,75.11
2022-11-24T19:21:28.913Z,75.19
2022-11-24T19:24:01.264Z,75.36
2022-11-24T19:26:32.232Z,75.63
2022-11-24T19:28:59.110Z,75.13
2022-11-24T19:31:26.727Z,75.18
2022-11-24T19:33:54.788Z,74.93
2022-11-24T19:36:23.215Z,75.01
2022-11-24T19:38:55.971Z,74.83
2022-11-24T19:41:27.667Z,74.58
2022-11-24T19:43:55.022Z,74.66
2022-11-24T19:46:26.199Z,74.83
2022-11-24T19:49:00.130Z,74.55
2022-11-24T19:51:37.165Z,74.84
2022-11-24T19:54:06.513Z,75.09
2022-11-24T19:56:36.476Z,75.01
2022-11-24T19:59:06.736Z,74.55
2022-11-24T20:01:37.910Z,74.55
2022-11-24T20:04:08.931Z,74.50
2022-11-24T20:06:39.452Z,74.06
2022-11-24T20:09:09.468Z,74.13
2022-11-24T20:11:37.815Z,73.94
2022-11-24T20:14:06.016Z,73.99
2022-11-24T20:16:34.743Z,74.05
2022-11-24T20:19:07.535Z,74.22
2022-11-24T20:21:36.629Z,74.24
2022-11-24T20:24:21.848Z,74.29
2022-11-24T20:26:56.299Z,74.60
2022-11-24T20:29:23.560Z,74.75
2022-11-24T20:31:53.814Z,74.57
2022-11-24T20:34:22.244Z,74.66
2022-11-24T20:36:49.646Z,74.91
2022-11-24T20:39:26.958Z,75.24
2022-11-24T20:41:55.636Z,74.94
2022-11-24T20:44:24.845Z,75.17
2022-11-24T20:46:51.654Z,75.20
2022-11-24T20:49:20.340Z,75.21
2022-11-24T20:51:48.276Z,75.08
2022-11-24T20:54:17.882Z,74.93
2022-11-24T20:56:46.536Z,74.84
2022-11-24T20:59:17.622Z,74.90
2022-11-24T21:01:46.424Z,75.23
2022-11-24T21:04:21.342Z,75.30
2022-11-24T21:06:48.305Z,75.38
2022-11-24T21:09:15.135Z,75.36
2022-11-24T21:11:42.514Z,75.33
2022-11-24T21:14:10.333Z,75.67
2022-11-24T21:16:40.083Z,75.80
2022-11-24T21:19:11.743Z,75.77
2022-11-24T21:21:40.144Z,75.54
2022-11-24T21:24:17.681Z,75.69
2022-11-24T21:26:50.386Z,76.63
2022-11-24T21:29:19.411Z,76.73
2022-11-24T21:31:46.308Z,76.22
2022-11-24T21:34:16.588Z,75.87
2022-11-24T21:36:44.968Z,75.78
2022-11-24T21:39:13.863Z,75.71
2022-11-24T21:41:40.977Z,75.28
2022-11-24T21:44:08.139Z,75.04
2022-11-24T21:46:42.459Z,74.89
2022-11-24T21:49:13.294Z,74.93
2022-11-24T21:51:40.050Z,75.12
2022-11-24T21:54:07.058Z,75.36
2022-11-24T21:56:33.924Z,75.56
2022-11-24T21:59:00.760Z,75.53
2022-11-24T22:01:28.788Z,75.71
2022-11-24T22:03:56.273Z,75.60
2022-11-24T22:06:23.511Z,75.50
2022-11-24T22:08:50.327Z,75.73
2022-11-24T22:11:23.421Z,75.95
2022-11-24T22:13:51.395Z,75.83
2022-11-24T22:16:24.362Z,75.89
2022-11-24T22:18:51.577Z,76.04
2022-11-24T22:21:29.862Z,76.29
2022-11-24T22:23:57.393Z,75.97
2022-11-24T22:26:24.955Z,76.24
2022-11-24T22:28:53.497Z,76.21
2022-11-24T22:31:30.388Z,75.64
2022-11-24T22:33:58.832Z,75.57
2022-11-24T22:36:30.060Z,75.50
2022-11-24T22:39:05.683Z,75.44
2022-11-24T22:41:35.561Z,76.13
2022-11-24T22:44:02.425Z,76.29
2022-11-24T22:46:31.191Z,75.46
2022-11-24T22:49:00.360Z,75.96
2022-11-24T22:51:32.376Z,76.15
2022-11-24T22:54:02.609Z,76.10
2022-11-24T22:56:32.337Z,76.72
2022-11-24T22:59:01.131Z,77.83
2022-11-24T23:01:29.988Z,78.12
2022-11-24T23:03:56.971Z,77.89
2022-11-24T23:06:26.844Z,77.67
2022-11-24T23:08:54.683Z,77.40
2022-11-24T23:11:32.651Z,77.48
2022-11-24T23:14:04.136Z,77.38
2022-11-24T23:16:31.136Z,77.05
2022-11-24T23:18:58.297Z,76.66
2022-11-24T23:21:31.751Z,76.43
2022-11-24T23:24:01.056Z,76.72
2022-11-24T23:26:36.137Z,76.89
2022-11-24T23:29:04.707Z,76.88
2022-11-24T23:31:32.472Z,76.71
2022-11-24T23:34:02.086Z,76.91
2022-11-24T23:36:29.672Z,76.80
2022-11-24T23:38:56.913Z,76.96
2022-11-24T23:41:25.719Z,77.06
2022-11-24T23:43:53.214Z,77.05
2022-11-24T23:46:26.081Z,77.07
2022-11-24T23:48:55.963Z,76.81
2022-11-24T23:51:26.244Z,76.71
2022-11-24T23:53:54.053Z,77.47
2022-11-24T23:56:24.066Z,77.28
2022-11-24T23:58:51.252Z,77.01
